createdAt,value
2019-06-08T00:01:12.698Z,15.33
2019-06-08T00:03:42.067Z,9.07
2019-06-08T00:06:12.579Z,10.80
2019-06-08T00:08:42.039Z,26.83
2019-06-08T00:11:11.332Z,12.00
2019-06-08T00:13:40.698Z,9.47
2019-06-08T00:16:10.282Z,10.03
2019-06-08T00:18:39.647Z,10.77
2019-06-08T00:21:08.948Z,10.60
2019-06-08T00:23:38.297Z,9.77
2019-06-08T00:26:07.606Z,9.67
2019-06-08T00:28:37.008Z,11.20
2019-06-08T00:31:25.378Z,16.03
2019-06-08T00:33:54.765Z,13.47
2019-06-08T00:36:25.046Z,13.73
2019-06-08T00:38:54.372Z,14.73
2019-06-08T00:41:23.811Z,10.53
2019-06-08T00:43:53.046Z,7.03
2019-06-08T00:46:23.536Z,7.17
2019-06-08T00:48:52.958Z,7.17
2019-06-08T00:51:23.117Z,11.17
2019-06-08T00:53:52.530Z,8.17
2019-06-08T00:56:21.799Z,7.80
2019-06-08T00:58:51.116Z,6.80
2019-06-08T01:01:22.760Z,6.27
2019-06-08T01:03:51.389Z,8.37
2019-06-08T01:06:21.007Z,6.63
2019-06-08T01:08:50.298Z,7.73
2019-06-08T01:11:20.930Z,6.30
2019-06-08T01:13:50.305Z,11.10
2019-06-08T01:16:20.823Z,7.40
2019-06-08T01:18:50.228Z,6.57
2019-06-08T01:21:19.545Z,7.47
2019-06-08T01:23:48.810Z,8.60
2019-06-08T01:26:18.137Z,7.37
2019-06-08T01:28:47.496Z,6.43
2019-06-08T01:31:16.892Z,7.27
2019-06-08T01:33:46.182Z,8.87
2019-06-08T01:36:15.524Z,10.97
2019-06-08T01:38:44.878Z,12.33
2019-06-08T01:41:14.214Z,17.63
2019-06-08T01:43:43.526Z,10.10
2019-06-08T01:46:12.887Z,7.57
2019-06-08T01:48:42.317Z,8.07
2019-06-08T01:51:11.647Z,19.33
2019-06-08T01:53:41.010Z,11.90
2019-06-08T01:56:10.321Z,5.97
2019-06-08T01:58:39.661Z,6.17
2019-06-08T02:01:09.053Z,8.43
2019-06-08T02:03:57.468Z,9.10
2019-06-08T02:06:28.335Z,9.45
2019-06-08T02:08:57.792Z,7.10
2019-06-08T02:11:27.098Z,8.53
2019-06-08T02:13:56.631Z,11.13
2019-06-08T02:16:27.292Z,10.40
2019-06-08T02:18:56.822Z,4.80
2019-06-08T02:21:27.023Z,5.73
2019-06-08T02:23:56.450Z,6.67
2019-06-08T02:26:27.576Z,12.13
2019-06-08T02:28:56.781Z,7.47
2019-06-08T02:31:26.061Z,5.33
2019-06-08T02:33:55.383Z,5.37
2019-06-08T02:36:24.693Z,7.23
2019-06-08T02:38:53.998Z,7.63
2019-06-08T02:41:23.306Z,6.07
2019-06-08T02:43:52.627Z,7.03
2019-06-08T02:46:21.968Z,7.47
2019-06-08T02:49:03.615Z,5.33
2019-06-08T02:51:22.549Z,7.30
2019-06-08T02:53:51.990Z,6.60
2019-06-08T02:56:21.766Z,9.20
2019-06-08T02:58:52.420Z,14.43
2019-06-08T03:01:23.436Z,6.57
2019-06-08T03:03:54.789Z,11.20
2019-06-08T03:06:25.681Z,11.37
2019-06-08T03:08:57.344Z,6.77
2019-06-08T03:11:27.344Z,6.17
2019-06-08T03:13:58.478Z,5.20
2019-06-08T03:16:27.745Z,5.43
2019-06-08T03:18:57.078Z,4.00
2019-06-08T03:21:27.050Z,5.58
2019-06-08T03:23:56.433Z,4.73
2019-06-08T03:26:25.763Z,7.03
2019-06-08T03:28:55.032Z,3.43
2019-06-08T03:31:24.524Z,4.83
2019-06-08T03:33:56.200Z,5.00
2019-06-08T03:36:24.853Z,4.10
2019-06-08T03:38:54.082Z,6.33
2019-06-08T03:41:23.387Z,6.00
2019-06-08T03:43:52.753Z,4.13
2019-06-08T03:46:22.157Z,7.33
2019-06-08T03:48:51.501Z,11.00
2019-06-08T03:51:20.834Z,4.77
2019-06-08T03:53:50.189Z,2.97
2019-06-08T03:56:19.592Z,3.20
2019-06-08T03:58:48.913Z,7.50
2019-06-08T04:01:18.240Z,9.30
2019-06-08T04:03:47.681Z,4.10
2019-06-08T04:06:17.010Z,5.07
2019-06-08T04:08:47.487Z,3.27
2019-06-08T04:11:17.115Z,2.50
2019-06-08T04:13:47.095Z,2.83
2019-06-08T04:16:16.817Z,4.17
2019-06-08T04:18:46.832Z,2.70
2019-06-08T04:21:16.359Z,3.40
2019-06-08T04:23:47.108Z,3.20
2019-06-08T04:26:16.684Z,2.30
2019-06-08T04:28:47.263Z,4.30
2019-06-08T04:31:16.923Z,3.07
2019-06-08T04:33:47.017Z,2.17
2019-06-08T04:36:16.321Z,4.83
2019-06-08T04:38:46.265Z,4.10
2019-06-08T04:41:16.684Z,3.07
2019-06-08T04:43:47.395Z,3.63
2019-06-08T04:46:17.035Z,5.27
2019-06-08T04:48:48.686Z,1.47
2019-06-08T04:51:17.367Z,5.23
2019-06-08T04:53:47.245Z,3.97
2019-06-08T04:56:17.037Z,1.73
2019-06-08T04:58:48.352Z,1.37
2019-06-08T05:01:17.308Z,2.07
2019-06-08T05:03:47.770Z,2.77
2019-06-08T05:06:17.644Z,4.73
2019-06-08T05:08:47.377Z,2.97
2019-06-08T05:11:16.699Z,3.80
2019-06-08T05:13:47.606Z,3.13
2019-06-08T05:16:16.997Z,1.53
2019-06-08T05:18:47.363Z,3.93
2019-06-08T05:21:16.604Z,1.60
2019-06-08T05:23:48.254Z,3.17
2019-06-08T05:26:17.000Z,3.90
2019-06-08T05:28:47.389Z,4.00
2019-06-08T05:31:16.690Z,5.70
2019-06-08T05:33:47.480Z,2.50
2019-06-08T05:36:16.918Z,6.23
2019-06-08T05:38:47.542Z,5.10
2019-06-08T05:41:17.157Z,4.93
2019-06-08T05:43:47.657Z,2.53
2019-06-08T05:46:17.039Z,3.40
2019-06-08T05:48:46.377Z,3.57
2019-06-08T05:51:15.704Z,1.57
2019-06-08T05:53:45.859Z,6.77
2019-06-08T05:56:15.295Z,3.20
2019-06-08T05:58:45.958Z,2.00
2019-06-08T06:01:15.393Z,8.60
2019-06-08T06:03:44.820Z,5.13
2019-06-08T06:06:14.099Z,1.77
2019-06-08T06:08:44.445Z,1.83
2019-06-08T06:11:14.105Z,3.20
2019-06-08T06:13:43.367Z,4.33
2019-06-08T06:16:12.658Z,3.27
2019-06-08T06:18:42.934Z,2.30
2019-06-08T06:21:12.670Z,1.80
2019-06-08T06:23:43.166Z,6.37
2019-06-08T06:26:12.626Z,2.97
2019-06-08T06:28:43.225Z,1.80
2019-06-08T06:31:12.627Z,2.13
2019-06-08T06:33:42.059Z,2.63
2019-06-08T06:36:11.390Z,4.40
2019-06-08T06:38:41.901Z,2.63
2019-06-08T06:41:11.337Z,3.47
2019-06-08T06:43:42.154Z,3.17
2019-06-08T06:46:11.625Z,3.97
2019-06-08T06:48:42.001Z,3.93
2019-06-08T06:51:25.255Z,3.80
2019-06-08T06:53:42.830Z,6.93
2019-06-08T06:56:12.146Z,1.43
2019-06-08T06:58:41.427Z,3.00
2019-06-08T07:01:10.760Z,1.57
2019-06-08T07:03:40.031Z,5.40
2019-06-08T07:06:09.355Z,1.67
2019-06-08T07:08:41.906Z,3.57
2019-06-08T07:11:09.656Z,4.77
2019-06-08T07:13:38.944Z,2.60
2019-06-08T07:16:17.892Z,2.73
2019-06-08T07:18:40.959Z,3.97
2019-06-08T07:21:10.374Z,4.23
2019-06-08T07:23:39.676Z,1.57
2019-06-08T07:26:09.026Z,1.47
2019-06-08T07:28:38.300Z,3.83
2019-06-08T07:31:07.823Z,2.53
2019-06-08T07:33:37.119Z,2.17
2019-06-08T07:36:06.429Z,2.30
2019-06-08T07:38:41.491Z,3.16
2019-06-08T07:41:10.857Z,3.80
2019-06-08T07:43:40.324Z,2.10
2019-06-08T07:46:10.120Z,5.03
2019-06-08T07:48:39.619Z,1.40
2019-06-08T07:51:09.063Z,3.63
2019-06-08T07:53:38.526Z,2.13
2019-06-08T07:56:09.133Z,1.67
2019-06-08T07:58:38.761Z,3.37
2019-06-08T08:01:08.455Z,3.73
2019-06-08T08:03:37.902Z,3.30
2019-06-08T08:06:07.346Z,2.17
2019-06-08T08:08:38.404Z,2.37
2019-06-08T08:11:08.002Z,3.50
2019-06-08T08:13:37.434Z,4.57
2019-06-08T08:16:06.907Z,5.03
2019-06-08T08:18:36.420Z,4.87
2019-06-08T08:21:18.822Z,4.03
2019-06-08T08:23:38.593Z,4.03
2019-06-08T08:26:08.154Z,2.47
2019-06-08T08:28:38.182Z,3.07
2019-06-08T08:31:11.464Z,3.07
2019-06-08T08:33:40.629Z,3.33
2019-06-08T08:36:10.109Z,3.60
2019-06-08T08:38:41.094Z,6.47
2019-06-08T08:41:10.945Z,4.40
2019-06-08T08:43:40.501Z,2.97
2019-06-08T08:46:12.793Z,3.27
2019-06-08T08:48:42.399Z,3.13
2019-06-08T08:51:11.879Z,1.90
2019-06-08T08:53:41.308Z,4.60
2019-06-08T08:56:10.784Z,2.00
2019-06-08T08:58:40.323Z,4.77
2019-06-08T09:01:09.809Z,1.97
2019-06-08T09:03:39.659Z,3.33
2019-06-08T09:06:09.321Z,4.53
2019-06-08T09:08:38.749Z,2.53
2019-06-08T09:11:08.405Z,4.63
2019-06-08T09:13:37.907Z,2.90
2019-06-08T09:16:08.103Z,5.23
2019-06-08T09:18:37.772Z,2.93
2019-06-08T09:21:08.389Z,5.70
2019-06-08T09:23:38.201Z,3.53
2019-06-08T09:26:12.339Z,2.77
2019-06-08T09:28:39.847Z,6.17
2019-06-08T09:31:12.717Z,4.43
2019-06-08T09:33:40.508Z,4.57
2019-06-08T09:36:10.092Z,4.40
2019-06-08T09:38:39.507Z,5.37
2019-06-08T09:41:09.167Z,4.30
2019-06-08T09:43:38.936Z,4.80
2019-06-08T09:46:09.370Z,6.30
2019-06-08T09:48:38.945Z,6.37
2019-06-08T09:51:09.389Z,5.03
2019-06-08T09:53:41.696Z,4.37
2019-06-08T09:56:10.370Z,4.53
2019-06-08T09:58:39.885Z,4.70
2019-06-08T10:01:12.396Z,2.47
2019-06-08T10:03:40.496Z,3.80
2019-06-08T10:06:12.312Z,4.13
2019-06-08T10:08:41.055Z,4.13
2019-06-08T10:11:10.470Z,3.57
2019-06-08T10:13:43.222Z,3.03
2019-06-08T10:16:11.495Z,5.20
2019-06-08T10:18:41.025Z,3.33
2019-06-08T10:21:10.476Z,5.17
2019-06-08T10:23:41.571Z,2.40
2019-06-08T10:26:23.138Z,6.27
2019-06-08T10:28:52.770Z,5.60
2019-06-08T10:31:35.633Z,2.80
2019-06-08T10:33:53.481Z,3.13
2019-06-08T10:36:23.003Z,3.43
2019-06-08T10:38:52.519Z,2.57
2019-06-08T10:41:22.037Z,3.13
2019-06-08T10:43:51.543Z,6.13
2019-06-08T10:46:21.171Z,2.57
2019-06-08T10:48:50.724Z,4.37
2019-06-08T10:51:20.209Z,4.60
2019-06-08T10:53:53.080Z,4.60
2019-06-08T10:56:21.095Z,3.67
2019-06-08T10:58:50.596Z,2.03
2019-06-08T11:01:20.125Z,4.40
2019-06-08T11:03:49.652Z,3.93
2019-06-08T11:06:19.231Z,3.77
2019-06-08T11:08:48.723Z,4.60
2019-06-08T11:11:20.269Z,13.70
2019-06-08T11:13:50.474Z,3.03
2019-06-08T11:16:20.117Z,4.37
2019-06-08T11:18:51.191Z,4.93
2019-06-08T11:21:20.860Z,4.00
2019-06-08T11:24:05.674Z,3.10
2019-06-08T11:26:24.393Z,4.13
2019-06-08T11:28:52.538Z,3.50
2019-06-08T11:31:22.028Z,4.47
2019-06-08T11:33:51.469Z,4.13
2019-06-08T11:36:20.912Z,6.57
2019-06-08T11:38:50.491Z,2.83
2019-06-08T11:41:22.714Z,5.57
2019-06-08T11:43:51.223Z,4.23
2019-06-08T11:46:21.862Z,2.77
2019-06-08T11:48:51.590Z,4.47
2019-06-08T11:51:21.119Z,5.80
2019-06-08T11:53:52.273Z,6.20
2019-06-08T11:56:22.442Z,5.07
2019-06-08T11:58:52.982Z,4.77
2019-06-08T12:01:22.711Z,5.13
2019-06-08T12:03:52.239Z,2.97
2019-06-08T12:06:23.999Z,3.27
2019-06-08T12:08:53.553Z,2.83
2019-06-08T12:11:23.298Z,4.00
2019-06-08T12:13:53.258Z,2.93
2019-06-08T12:16:22.815Z,5.60
2019-06-08T12:18:52.290Z,3.47
2019-06-08T12:21:21.700Z,3.30
2019-06-08T12:23:51.203Z,3.43
2019-06-08T12:26:20.727Z,4.10
2019-06-08T12:28:50.189Z,5.30
2019-06-08T12:31:22.733Z,4.50
2019-06-08T12:33:50.886Z,3.53
2019-06-08T12:36:20.971Z,4.10
2019-06-08T12:38:50.664Z,6.87
2019-06-08T12:41:20.235Z,3.30
2019-06-08T12:43:49.660Z,3.40
2019-06-08T12:46:21.254Z,3.77
2019-06-08T12:48:50.257Z,3.33
2019-06-08T12:51:21.382Z,3.87
2019-06-08T12:53:50.833Z,5.17
2019-06-08T12:56:24.080Z,5.73
2019-06-08T12:58:51.402Z,6.00
2019-06-08T13:01:20.849Z,5.33
2019-06-08T13:03:50.292Z,7.37
2019-06-08T13:06:20.108Z,4.03
2019-06-08T13:08:49.663Z,2.13
2019-06-08T13:11:21.213Z,4.77
2019-06-08T13:13:50.286Z,6.97
2019-06-08T13:16:23.802Z,4.13
2019-06-08T13:18:51.142Z,3.97
2019-06-08T13:21:31.590Z,3.67
2019-06-08T13:23:54.902Z,2.93
2019-06-08T13:26:27.881Z,3.63
2019-06-08T13:28:55.504Z,4.60
2019-06-08T13:31:25.192Z,2.07
2019-06-08T13:33:54.677Z,2.97
2019-06-08T13:36:27.216Z,2.93
2019-06-08T13:38:55.398Z,4.77
2019-06-08T13:41:29.005Z,3.53
2019-06-08T13:43:58.114Z,3.50
2019-06-08T13:46:28.212Z,2.27
2019-06-08T13:48:58.594Z,4.83
2019-06-08T13:51:28.639Z,5.70
2019-06-08T13:53:58.342Z,3.07
2019-06-08T13:56:28.593Z,2.70
2019-06-08T13:58:58.105Z,3.63
2019-06-08T14:01:30.890Z,4.20
2019-06-08T14:03:58.814Z,4.57
2019-06-08T14:06:28.519Z,2.93
2019-06-08T14:08:58.217Z,2.27
2019-06-08T14:11:28.182Z,2.53
2019-06-08T14:14:00.820Z,2.33
2019-06-08T14:16:29.765Z,3.13
2019-06-08T14:18:59.349Z,3.37
2019-06-08T14:21:38.731Z,3.23
2019-06-08T14:24:01.463Z,3.17
2019-06-08T14:26:30.911Z,4.43
2019-06-08T14:29:01.572Z,4.63
2019-06-08T14:31:32.105Z,4.53
2019-06-08T14:34:02.381Z,2.17
2019-06-08T14:36:31.882Z,3.80
2019-06-08T14:39:02.437Z,5.97
2019-06-08T14:41:32.310Z,3.20
2019-06-08T14:44:01.783Z,2.63
2019-06-08T14:46:31.301Z,5.57
2019-06-08T14:49:00.726Z,4.90
2019-06-08T14:51:48.910Z,3.57
2019-06-08T14:54:24.402Z,3.77
2019-06-08T14:56:50.762Z,3.20
2019-06-08T14:59:21.821Z,6.13
2019-06-08T15:01:51.366Z,5.37
2019-06-08T15:04:23.889Z,3.53
2019-06-08T15:06:51.930Z,3.73
2019-06-08T15:09:21.419Z,4.50
2019-06-08T15:11:50.930Z,4.57
2019-06-08T15:14:21.579Z,2.60
2019-06-08T15:16:51.125Z,5.83
2019-06-08T15:19:20.611Z,4.73
2019-06-08T15:21:53.479Z,3.80
2019-06-08T15:24:29.010Z,2.90
2019-06-08T15:26:58.188Z,2.53
2019-06-08T15:29:29.622Z,4.13
2019-06-08T15:31:58.603Z,7.90
2019-06-08T15:34:31.409Z,4.23
2019-06-08T15:36:59.879Z,4.87
2019-06-08T15:39:32.534Z,4.47
2019-06-08T15:42:00.509Z,3.70
2019-06-08T15:44:30.718Z,3.67
2019-06-08T15:47:01.232Z,2.33
2019-06-08T15:49:32.257Z,3.93
2019-06-08T15:52:01.697Z,2.07
2019-06-08T15:54:36.218Z,3.90
2019-06-08T15:57:02.343Z,2.77
2019-06-08T15:59:37.005Z,6.23
2019-06-08T16:02:02.920Z,2.90
2019-06-08T16:04:33.794Z,4.87
2019-06-08T16:07:03.661Z,5.00
2019-06-08T16:09:34.985Z,2.03
2019-06-08T16:12:04.545Z,2.70
2019-06-08T16:14:35.574Z,2.67
2019-06-08T16:17:05.164Z,4.67
2019-06-08T16:19:36.922Z,3.03
2019-06-08T16:22:07.722Z,2.13
2019-06-08T16:24:38.777Z,5.50
2019-06-08T16:27:10.091Z,3.10
2019-06-08T16:29:39.778Z,3.87
2019-06-08T16:32:09.957Z,5.83
2019-06-08T16:34:42.976Z,4.60
2019-06-08T16:37:12.498Z,3.93
2019-06-08T16:39:41.914Z,3.63
2019-06-08T16:42:11.446Z,3.63
2019-06-08T16:44:40.916Z,4.97
2019-06-08T16:47:11.412Z,2.87
2019-06-08T16:49:41.020Z,2.60
2019-06-08T16:52:10.528Z,4.40
2019-06-08T16:54:42.199Z,3.73
2019-06-08T16:57:11.761Z,3.90
2019-06-08T16:59:41.173Z,2.50
2019-06-08T17:02:10.745Z,6.07
2019-06-08T17:04:40.167Z,3.23
2019-06-08T17:07:09.703Z,3.23
2019-06-08T17:09:40.058Z,3.87
2019-06-08T17:12:12.752Z,3.00
2019-06-08T17:14:42.207Z,4.17
2019-06-08T17:17:11.736Z,7.33
2019-06-08T17:19:41.170Z,5.17
2019-06-08T17:22:10.672Z,4.90
2019-06-08T17:24:40.766Z,6.43
2019-06-08T17:27:25.461Z,11.70
2019-06-08T17:29:41.527Z,4.40
2019-06-08T17:32:10.996Z,5.00
2019-06-08T17:34:42.327Z,3.53
2019-06-08T17:37:11.982Z,4.83
2019-06-08T17:39:42.561Z,8.67
2019-06-08T17:42:12.466Z,4.67
2019-06-08T17:44:43.398Z,3.40
2019-06-08T17:47:12.971Z,3.13
2019-06-08T17:49:44.293Z,4.47
2019-06-08T17:52:13.723Z,7.00
2019-06-08T17:54:43.308Z,4.13
2019-06-08T17:57:12.930Z,3.93
2019-06-08T17:59:42.654Z,4.60
2019-06-08T18:02:15.369Z,4.30
2019-06-08T18:04:44.510Z,4.53
2019-06-08T18:07:14.078Z,3.23
2019-06-08T18:09:44.801Z,5.10
2019-06-08T18:12:14.447Z,2.53
2019-06-08T18:14:45.063Z,4.67
2019-06-08T18:17:17.468Z,5.50
2019-06-08T18:19:47.090Z,4.43
2019-06-08T18:22:18.750Z,4.27
2019-06-08T18:24:48.349Z,4.60
2019-06-08T18:27:18.284Z,4.70
2019-06-08T18:29:48.812Z,3.53
2019-06-08T18:32:18.434Z,3.27
2019-06-08T18:34:48.177Z,3.33
2019-06-08T18:37:18.241Z,3.40
2019-06-08T18:39:49.480Z,2.53
2019-06-08T18:42:20.037Z,7.00
2019-06-08T18:44:50.349Z,5.37
2019-06-08T18:47:20.213Z,7.37
2019-06-08T18:49:49.763Z,3.50
2019-06-08T18:52:19.330Z,4.60
2019-06-08T18:54:49.565Z,5.90
2019-06-08T18:57:19.370Z,5.90
2019-06-08T18:59:52.598Z,4.80
2019-06-08T19:02:19.921Z,6.03
2019-06-08T19:04:49.714Z,4.47
2019-06-08T19:07:19.278Z,3.80
2019-06-08T19:09:49.796Z,4.20
2019-06-08T19:12:19.549Z,4.20
2019-06-08T19:14:52.181Z,4.13
2019-06-08T19:17:20.206Z,6.90
2019-06-08T19:19:52.408Z,4.37
2019-06-08T19:22:20.672Z,3.83
2019-06-08T19:24:50.829Z,6.23
2019-06-08T19:27:20.759Z,12.97
2019-06-08T19:29:51.627Z,11.20
2019-06-08T19:32:21.139Z,11.77
2019-06-08T19:34:53.871Z,11.27
2019-06-08T19:37:21.582Z,11.73
2019-06-08T19:39:51.018Z,9.47
2019-06-08T19:42:33.281Z,10.47
2019-06-08T19:45:01.249Z,11.03
2019-06-08T19:47:22.677Z,15.20
2019-06-08T19:49:54.789Z,3.87
2019-06-08T19:52:24.780Z,4.63
2019-06-08T19:54:54.232Z,4.17
2019-06-08T19:57:23.586Z,3.40
2019-06-08T19:59:52.953Z,3.57
2019-06-08T20:02:22.429Z,3.17
2019-06-08T20:04:53.113Z,2.37
2019-06-08T20:07:23.083Z,4.20
2019-06-08T20:09:53.684Z,5.13
2019-06-08T20:12:24.231Z,3.03
2019-06-08T20:14:53.852Z,6.00
2019-06-08T20:17:23.394Z,3.70
2019-06-08T20:19:53.441Z,5.23
2019-06-08T20:22:23.040Z,3.47
2019-06-08T20:24:55.738Z,4.97
2019-06-08T20:27:24.540Z,4.67
2019-06-08T20:30:13.018Z,2.90
2019-06-08T20:32:42.442Z,4.57
2019-06-08T20:35:12.045Z,5.57
2019-06-08T20:37:41.570Z,3.80
2019-06-08T20:40:14.240Z,3.13
2019-06-08T20:42:44.170Z,3.40
2019-06-08T20:45:13.742Z,2.63
2019-06-08T20:47:44.295Z,2.53
2019-06-08T20:50:14.496Z,2.33
2019-06-08T20:52:47.246Z,3.97
2019-06-08T20:55:17.532Z,2.50
2019-06-08T20:57:49.088Z,3.40
2019-06-08T21:00:18.369Z,2.40
2019-06-08T21:02:49.885Z,2.57
2019-06-08T21:05:18.873Z,2.53
2019-06-08T21:07:50.895Z,3.07
2019-06-08T21:10:19.565Z,4.00
2019-06-08T21:12:51.121Z,5.67
2019-06-08T21:15:20.088Z,7.17
2019-06-08T21:17:52.638Z,2.73
2019-06-08T21:20:23.150Z,4.50
2019-06-08T21:22:53.952Z,2.60
2019-06-08T21:25:23.641Z,5.73
2019-06-08T21:27:54.177Z,2.87
2019-06-08T21:30:24.786Z,2.07
2019-06-08T21:32:56.220Z,6.13
2019-06-08T21:35:25.448Z,3.73
2019-06-08T21:37:56.916Z,4.73
2019-06-08T21:40:28.076Z,5.43
2019-06-08T21:43:01.155Z,4.70
2019-06-08T21:45:30.428Z,3.87
2019-06-08T21:48:00.508Z,6.03
2019-06-08T21:50:30.153Z,5.30
2019-06-08T21:53:00.575Z,5.73
2019-06-08T21:55:30.117Z,4.27
2019-06-08T21:58:01.759Z,5.27
2019-06-08T22:00:39.188Z,6.40
2019-06-08T22:03:02.296Z,3.90
2019-06-08T22:05:31.783Z,3.07
2019-06-08T22:08:01.293Z,7.80
2019-06-08T22:10:30.714Z,5.10
2019-06-08T22:13:01.167Z,4.97
2019-06-08T22:15:30.559Z,3.10
2019-06-08T22:18:01.392Z,11.00
2019-06-08T22:20:30.858Z,4.67
2019-06-08T22:23:00.969Z,6.63
2019-06-08T22:25:33.180Z,6.43
2019-06-08T22:28:01.580Z,7.83
2019-06-08T22:30:39.388Z,6.00
2019-06-08T22:33:02.054Z,3.67
2019-06-08T22:35:31.517Z,7.07
2019-06-08T22:38:01.026Z,5.57
2019-06-08T22:40:30.387Z,4.93
2019-06-08T22:43:00.865Z,2.17
2019-06-08T22:45:30.337Z,4.93
2019-06-08T22:48:01.819Z,3.87
2019-06-08T22:50:30.886Z,3.63
2019-06-08T22:53:01.356Z,3.47
2019-06-08T22:55:31.265Z,5.87
2019-06-08T22:58:01.893Z,4.17
2019-06-08T23:00:31.881Z,7.47
2019-06-08T23:03:03.811Z,3.47
2019-06-08T23:05:32.347Z,3.13
2019-06-08T23:08:04.408Z,3.73
2019-06-08T23:10:32.885Z,2.77
2019-06-08T23:13:04.337Z,2.87
2019-06-08T23:15:34.153Z,4.57
2019-06-08T23:18:05.592Z,4.67
2019-06-08T23:20:34.461Z,4.20
2019-06-08T23:23:04.265Z,4.97
2019-06-08T23:25:33.673Z,4.53
2019-06-08T23:28:03.628Z,3.30
2019-06-08T23:30:34.241Z,2.90
2019-06-08T23:33:05.561Z,4.07
2019-06-08T23:35:56.679Z,4.33
2019-06-08T23:38:08.024Z,3.07
2019-06-08T23:40:37.896Z,4.67
2019-06-08T23:43:08.272Z,5.67
2019-06-08T23:45:38.145Z,2.20
2019-06-08T23:48:08.753Z,3.80
2019-06-08T23:50:38.269Z,3.97
2019-06-08T23:53:10.470Z,2.47
2019-06-08T23:55:38.831Z,3.37
2019-06-08T23:58:11.188Z,3.00
